Time;durP1;ratioP1;P1;durP2;ratioP2;P2;SDS_P1;SDS_P2;PMS_P1;PMS_P2;Temp;Humidity;BMP_temperature;BMP_pressure;BME280_temperature;BME280_humidity;BME280_pressure;Samples;Min_cycle;Max_cycle;Signal;HPM_P1;HPM_P2
2021/11/02 00:01:19;;;;;;;;;;;;;;;10.47;94.86;99424.28;5032955;28;1180;-61
2021/11/02 00:03:46;;;;;;;;;;;;;;;10.33;94.46;99420.47;5034091;28;1957;-61
2021/11/02 00:06:11;;;;;;;;;;;;;;;10.23;94.66;99418.56;5034196;28;972;-60
2021/11/02 00:08:37;;;;;;;;;;;;;;;10.20;94.76;99420.19;5034091;28;889;-61
2021/11/02 00:11:04;;;;;;;;;;;;;;;10.19;95.55;99409.53;5034232;28;861;-61
2021/11/02 00:13:34;;;;;;;;;;;;;;;10.21;95.56;99409.91;5034015;28;774;-61
2021/11/02 00:16:02;;;;;;;;;;;;;;;10.23;95.61;99408.31;5033943;28;877;-61
2021/11/02 00:18:29;;;;;;;;;;;;;;;10.30;95.93;99401.16;5037983;28;1377;-61
2021/11/02 00:21:00;;;;;;;;;;;;;;;10.33;95.97;99395.63;5053773;28;830;-61
2021/11/02 00:23:29;;;;;;;;;;;;;;;10.37;95.55;99392.78;5053715;28;1957;-61
2021/11/02 00:25:55;;;;;;;;;;;;;;;10.40;95.52;99394.75;5053657;28;864;-60
2021/11/02 00:28:22;;;;;;;;;;;;;;;10.42;95.75;99393.16;5053333;28;881;-61
2021/11/02 00:30:48;;;;;;;;;;;;;;;10.46;95.78;99384.06;5035644;28;1438;-61
2021/11/02 00:33:14;;;;;;;;;;;;;;;10.50;95.61;99393.88;5053551;28;866;-61
2021/11/02 00:35:41;;;;;;;;;;;;;;;10.57;95.51;99395.75;5053548;28;889;-61
2021/11/02 00:38:07;;;;;;;;;;;;;;;10.63;95.79;99394.09;5053468;28;869;-60
2021/11/02 00:40:36;;;;;;;;;;;;;;;10.67;95.97;99381.03;5053458;28;811;-61
2021/11/02 00:43:04;;;;;;;;;;;;;;;10.70;95.66;99382.97;5053367;28;815;-61
2021/11/02 00:45:33;;;;;;;;;;;;;;;10.72;95.89;99383.34;5053233;28;1957;-61
2021/11/02 00:48:01;;;;;;;;;;;;;;;10.73;95.83;99379.38;5053237;28;822;-60
2021/11/02 00:50:30;;;;;;;;;;;;;;;10.70;95.71;99380.19;5053525;28;890;-60
2021/11/02 00:52:56;;;;;;;;;;;;;;;10.68;95.67;99379.81;5053163;28;819;-61
2021/11/02 00:55:22;;;;;;;;;;;;;;;10.60;95.40;99378.34;5053243;28;806;-61
2021/11/02 00:57:49;;;;;;;;;;;;;;;10.53;95.59;99383.97;5052936;28;818;-61
2021/11/02 01:00:16;;;;;;;;;;;;;;;10.49;95.65;99380.44;5053025;28;858;-61
2021/11/02 01:02:43;;;;;;;;;;;;;;;10.48;95.47;99381.66;5053031;28;834;-61
2021/11/02 01:05:10;;;;;;;;;;;;;;;10.47;95.44;99374.56;5052829;28;1910;-61
2021/11/02 01:07:37;;;;;;;;;;;;;;;10.45;95.88;99377.72;5034919;28;1256;-60
2021/11/02 01:10:04;;;;;;;;;;;;;;;10.42;95.45;99367.50;5052789;28;827;-61
2021/11/02 01:12:31;;;;;;;;;;;;;;;10.38;95.35;99373.06;5052792;28;858;-60
2021/11/02 01:14:58;;;;;;;;;;;;;;;10.30;95.42;99371.56;5034733;28;1268;-61
2021/11/02 01:17:24;;;;;;;;;;;;;;;10.25;95.60;99362.94;5052747;28;1035;-60
2021/11/02 01:19:51;;;;;;;;;;;;;;;10.23;95.61;99363.34;5052525;28;1277;-61
2021/11/02 01:22:17;;;;;;;;;;;;;;;10.22;95.79;99359.00;5052518;28;807;-61
2021/11/02 01:24:44;;;;;;;;;;;;;;;10.20;95.56;99351.13;5052555;28;1909;-60
2021/11/02 01:27:10;;;;;;;;;;;;;;;10.15;95.51;99353.56;5052358;28;842;-60
2021/11/02 01:29:36;;;;;;;;;;;;;;;10.17;95.93;99349.19;5052790;28;842;-60
2021/11/02 01:32:03;;;;;;;;;;;;;;;10.20;95.49;99353.91;5052453;28;965;-60
2021/11/02 01:34:30;;;;;;;;;;;;;;;10.23;95.60;99344.78;5052332;28;843;-60
2021/11/02 01:36:56;;;;;;;;;;;;;;;10.25;95.78;99349.13;5052369;28;874;-60
2021/11/02 01:39:24;;;;;;;;;;;;;;;10.23;95.58;99347.53;5033809;28;1499;-61
2021/11/02 01:41:50;;;;;;;;;;;;;;;10.26;95.76;99351.44;5052484;28;827;-60
2021/11/02 01:44:17;;;;;;;;;;;;;;;10.25;95.53;99340.84;5052121;28;1965;-60
2021/11/02 01:46:44;;;;;;;;;;;;;;;10.25;95.73;99347.13;5052169;28;846;-60
2021/11/02 01:49:11;;;;;;;;;;;;;;;10.25;95.62;99343.59;5052073;28;853;-60
2021/11/02 01:51:37;;;;;;;;;;;;;;;10.27;95.49;99347.50;5052338;28;786;-61
2021/11/02 01:54:04;;;;;;;;;;;;;;;10.26;95.27;99326.59;5052054;28;900;-61
2021/11/02 01:56:32;;;;;;;;;;;;;;;10.22;95.61;99342.44;5051941;28;885;-61
2021/11/02 01:59:00;;;;;;;;;;;;;;;10.23;95.34;99341.25;5052002;28;833;-60
2021/11/02 02:01:40;;;;;;;;;;;;;;;10.21;95.17;99335.34;5051912;28;799;-60
2021/11/02 02:04:16;;;;;;;;;;;;;;;10.23;95.56;99338.47;5051837;28;1906;-61
2021/11/02 02:06:46;;;;;;;;;;;;;;;10.24;95.11;99334.50;5051810;28;858;-61
2021/11/02 02:09:35;;;;;;;;;;;;;;;10.21;95.24;99335.34;5051753;28;921;-61
2021/11/02 02:12:13;;;;;;;;;;;;;;;10.18;95.17;99325.91;5051737;28;814;-60
2021/11/02 02:14:50;;;;;;;;;;;;;;;10.19;95.63;99323.91;5052064;28;815;-61
2021/11/02 02:17:18;;;;;;;;;;;;;;;10.20;95.21;99322.75;5051612;28;946;-61
2021/11/02 02:19:51;;;;;;;;;;;;;;;10.22;95.30;99325.88;5051414;28;1219;-60
2021/11/02 02:22:35;;;;;;;;;;;;;;;10.23;95.31;99321.91;5051682;28;803;-61
2021/11/02 02:25:21;;;;;;;;;;;;;;;10.20;95.19;99323.50;5051490;28;1909;-60
2021/11/02 02:27:59;;;;;;;;;;;;;;;10.19;95.08;99335.75;5051434;28;862;-61
2021/11/02 02:30:26;;;;;;;;;;;;;;;10.21;95.17;99329.81;5051500;28;791;-61
2021/11/02 02:32:55;;;;;;;;;;;;;;;10.21;95.02;99330.59;5051480;28;850;-61
2021/11/02 02:35:22;;;;;;;;;;;;;;;10.22;95.12;99328.63;5051536;28;890;-60
2021/11/02 02:37:49;;;;;;;;;;;;;;;10.22;95.05;99334.16;5033530;28;1169;-61
2021/11/02 02:40:18;;;;;;;;;;;;;;;10.21;95.13;99336.13;5051523;28;937;-60
2021/11/02 02:42:45;;;;;;;;;;;;;;;10.22;95.21;99339.69;5051438;28;803;-60
2021/11/02 02:45:15;;;;;;;;;;;;;;;10.25;95.11;99338.06;5051239;28;1947;-61
2021/11/02 02:47:43;;;;;;;;;;;;;;;10.23;94.79;99338.47;5051716;28;834;-60
2021/11/02 02:50:09;;;;;;;;;;;;;;;10.21;95.10;99343.63;5051282;28;831;-61
2021/11/02 02:52:36;;;;;;;;;;;;;;;10.20;94.98;99340.09;5054144;28;866;-60
2021/11/02 02:55:04;;;;;;;;;;;;;;;10.20;94.98;99344.84;5055399;28;810;-60
2021/11/02 02:57:32;;;;;;;;;;;;;;;10.20;95.04;99344.84;5055281;28;835;-61
2021/11/02 02:59:59;;;;;;;;;;;;;;;10.19;94.97;99343.25;5037380;28;1211;-60
2021/11/02 03:02:29;;;;;;;;;;;;;;;10.15;94.76;99336.97;5037350;28;875;-61
2021/11/02 03:04:57;;;;;;;;;;;;;;;10.12;94.93;99348.88;5055114;28;1882;-61
2021/11/02 03:07:23;;;;;;;;;;;;;;;10.09;94.85;99344.13;5055099;28;846;-60
2021/11/02 03:09:50;;;;;;;;;;;;;;;10.05;95.30;99341.44;5055075;28;799;-60
2021/11/02 03:12:29;;;;;;;;;;;;;;;10.02;95.39;99342.25;5055033;28;815;-61
2021/11/02 03:15:12;;;;;;;;;;;;;;;9.99;95.28;99349.38;5055063;28;795;-60
2021/11/02 03:17:54;;;;;;;;;;;;;;;10.00;95.27;99344.63;5055083;28;997;-61
2021/11/02 04:01:43;;;;;;;;;;;;;;;9.81;95.18;99326.66;5034664;28;629;-60
2021/11/02 04:27:03;;;;;;;;;;;;;;;9.82;96.03;99320.75;5002661;28;1303;-60
2021/11/02 04:43:12;;;;;;;;;;;;;;;9.85;96.17;99327.41;5033779;28;633;-60
2021/11/02 05:08:18;;;;;;;;;;;;;;;9.97;96.09;99296.53;4933969;29;682;-60
2021/11/02 05:51:57;;;;;;;;;;;;;;;10.42;95.33;99285.41;5052124;28;868;-62
2021/11/02 05:56:35;;;;;;;;;;;;;;;10.54;95.57;99274.97;5052062;28;727;-62
2021/11/02 06:01:48;;;;;;;;;;;;;;;10.69;95.76;99262.56;5051937;28;739;-62
2021/11/02 06:04:37;;;;;;;;;;;;;;;10.82;95.50;99257.25;5051821;28;1890;-62
2021/11/02 06:08:16;;;;;;;;;;;;;;;10.89;95.45;99282.00;5051119;28;1143;-62
2021/11/02 06:10:32;;;;;;;;;;;;;;;11.00;94.98;99284.63;5011367;28;1072;-62
2021/11/02 06:30:04;;;;;;;;;;;;;;;11.10;94.68;99286.44;5051559;28;703;-62
2021/11/02 06:32:36;;;;;;;;;;;;;;;11.17;94.13;99280.00;5051534;28;877;-62
2021/11/02 06:35:14;;;;;;;;;;;;;;;11.14;94.32;99281.63;5051494;28;814;-62
2021/11/02 06:53:39;;;;;;;;;;;;;;;11.40;93.64;99287.56;5051317;28;679;-62
2021/11/02 07:16:11;;;;;;;;;;;;;;;11.99;90.07;99253.69;5051340;28;616;-61
2021/11/02 07:18:38;;;;;;;;;;;;;;;12.13;90.05;99255.41;5051020;28;1049;-62
2021/11/02 07:24:24;;;;;;;;;;;;;;;12.12;88.45;99244.72;5051045;28;888;-62
2021/11/02 07:29:31;;;;;;;;;;;;;;;12.07;87.35;99234.16;5051028;28;738;-61
2021/11/02 08:47:07;;;;;;;;;;;;;;;15.01;73.39;99179.28;5053392;28;632;-62
2021/11/02 08:49:40;;;;;;;;;;;;;;;15.10;72.24;99173.81;5053254;28;849;-62
2021/11/02 08:52:06;;;;;;;;;;;;;;;15.34;72.17;99174.22;5053308;28;850;-61
2021/11/02 08:54:36;;;;;;;;;;;;;;;15.31;71.59;99170.28;5053158;28;826;-62
2021/11/02 08:57:03;;;;;;;;;;;;;;;15.20;71.74;99158.75;5053207;28;830;-63
2021/11/02 08:59:33;;;;;;;;;;;;;;;15.23;72.55;99168.22;5053430;28;838;-62
2021/11/02 09:02:01;;;;;;;;;;;;;;;15.54;71.80;99150.84;5053077;28;806;-63
2021/11/02 09:04:33;;;;;;;;;;;;;;;15.63;71.39;99157.25;5052917;28;1947;-62
2021/11/02 09:07:04;;;;;;;;;;;;;;;15.46;70.74;99144.75;5053426;28;791;-62
2021/11/02 09:09:34;;;;;;;;;;;;;;;15.24;71.65;99139.94;5052943;28;795;-63
2021/11/02 09:12:03;;;;;;;;;;;;;;;15.00;72.28;99136.78;5052821;28;790;-62
2021/11/02 09:14:31;;;;;;;;;;;;;;;14.62;71.60;99134.81;5052782;28;794;-63
2021/11/02 09:16:58;;;;;;;;;;;;;;;14.62;71.52;99122.94;5052676;28;963;-63
2021/11/02 09:19:28;;;;;;;;;;;;;;;14.48;72.01;99127.66;5052557;28;1293;-62
2021/11/02 09:21:55;;;;;;;;;;;;;;;14.61;72.38;99119.34;5052717;28;806;-62
2021/11/02 09:24:23;;;;;;;;;;;;;;;15.14;71.53;99113.22;5052573;28;1910;-61
2021/11/02 09:26:49;;;;;;;;;;;;;;;15.35;69.59;99108.16;5052572;28;861;-61
2021/11/02 09:29:18;;;;;;;;;;;;;;;15.84;70.75;99110.38;5052564;28;791;-63
2021/11/02 09:31:45;;;;;;;;;;;;;;;16.21;68.03;99105.00;5052470;28;905;-62
2021/11/02 09:34:12;;;;;;;;;;;;;;;16.02;68.34;99102.09;5052436;28;870;-62
2021/11/02 09:36:43;;;;;;;;;;;;;;;15.60;68.92;99104.47;5052407;28;831;-62
2021/11/02 09:39:13;;;;;;;;;;;;;;;15.05;70.10;99102.03;5052374;28;854;-61
2021/11/02 09:42:00;;;;;;;;;;;;;;;14.96;70.68;99093.59;5052449;28;884;-63
2021/11/02 09:44:34;;;;;;;;;;;;;;;15.25;69.94;99099.72;5053167;28;1882;-62
2021/11/02 09:47:04;;;;;;;;;;;;;;;15.53;69.63;99099.94;5052006;28;1152;-62
2021/11/02 09:49:30;;;;;;;;;;;;;;;15.76;68.87;99100.72;5052173;28;905;-62
2021/11/02 09:52:02;;;;;;;;;;;;;;;16.17;68.32;99093.97;5052208;28;848;-62
2021/11/02 09:54:47;;;;;;;;;;;;;;;16.18;68.49;99083.63;5052272;28;849;-62
2021/11/02 09:57:29;;;;;;;;;;;;;;;16.20;67.69;99079.13;5052113;28;892;-62
2021/11/02 09:59:56;;;;;;;;;;;;;;;16.55;66.17;99070.56;5051588;28;846;-62
2021/11/02 10:02:38;;;;;;;;;;;;;;;16.67;65.06;99055.72;5051954;28;846;-62
2021/11/02 10:05:15;;;;;;;;;;;;;;;16.85;64.87;99063.34;5052289;28;1979;-62
2021/11/02 10:07:52;;;;;;;;;;;;;;;16.54;64.70;99057.88;5051813;28;855;-62
2021/11/02 10:10:25;;;;;;;;;;;;;;;16.33;65.96;99056.72;5051162;28;996;-61
2021/11/02 10:12:59;;;;;;;;;;;;;;;16.55;65.88;99048.25;5051694;28;869;-62
2021/11/02 10:15:39;;;;;;;;;;;;;;;16.37;63.10;99056.59;5033877;28;2043;-62
2021/11/02 10:18:19;;;;;;;;;;;;;;;16.38;64.61;99044.19;5051384;28;1343;-61
2021/11/02 10:20:46;;;;;;;;;;;;;;;16.34;62.62;99038.72;5033883;28;909;-61
2021/11/02 10:23:30;;;;;;;;;;;;;;;16.42;62.67;99033.66;5051616;28;814;-61
2021/11/02 10:26:09;;;;;;;;;;;;;;;16.30;63.44;99015.78;5051528;28;1914;-61
2021/11/02 10:28:42;;;;;;;;;;;;;;;16.08;63.60;99027.81;5051692;28;830;-61
2021/11/02 10:31:11;;;;;;;;;;;;;;;15.96;64.24;99019.56;5051552;28;904;-61
2021/11/02 10:33:46;;;;;;;;;;;;;;;15.76;64.91;99017.16;5051426;28;877;-62
2021/11/02 10:36:20;;;;;;;;;;;;;;;15.84;65.54;99021.22;5051462;28;854;-62
2021/11/02 10:39:11;;;;;;;;;;;;;;;15.84;64.25;99016.41;5051525;28;874;-60
2021/11/02 10:41:43;;;;;;;;;;;;;;;15.67;64.55;99007.47;5051422;28;827;-61
2021/11/02 10:44:29;;;;;;;;;;;;;;;15.55;65.35;98999.22;5051240;28;1971;-61
2021/11/02 10:47:02;;;;;;;;;;;;;;;15.69;66.26;99009.81;5051349;28;847;-61
2021/11/02 10:49:29;;;;;;;;;;;;;;;15.94;66.35;98994.94;5051348;28;838;-61
2021/11/02 10:52:04;;;;;;;;;;;;;;;16.03;65.65;98988.63;5033461;28;1193;-62
2021/11/02 10:54:41;;;;;;;;;;;;;;;16.03;65.45;98981.03;5051280;28;891;-61
2021/11/02 10:57:18;;;;;;;;;;;;;;;15.92;64.19;98986.28;5051390;28;826;-62
2021/11/02 10:59:48;;;;;;;;;;;;;;;15.84;65.64;98985.78;5051319;28;854;-61
2021/11/02 11:02:28;;;;;;;;;;;;;;;15.88;66.07;98978.06;5051256;28;857;-62
2021/11/02 11:04:59;;;;;;;;;;;;;;;16.03;66.57;98975.47;5051137;28;1952;-62
2021/11/02 11:07:43;;;;;;;;;;;;;;;16.03;65.39;98978.25;5051287;28;794;-61
2021/11/02 11:10:13;;;;;;;;;;;;;;;15.85;64.95;98964.25;5051147;28;834;-62
2021/11/02 11:12:53;;;;;;;;;;;;;;;15.79;65.48;98966.88;5052392;28;894;-62
2021/11/02 11:15:21;;;;;;;;;;;;;;;15.73;64.30;98973.50;5055382;28;842;-62
2021/11/02 11:18:17;;;;;;;;;;;;;;;15.62;64.16;98977.44;5055146;28;1051;-62
2021/11/02 11:20:43;;;;;;;;;;;;;;;15.48;64.84;98978.75;5022515;28;1391;-62
2021/11/02 11:23:11;;;;;;;;;;;;;;;15.37;65.42;98977.63;5035185;28;870;-61
2021/11/02 11:25:51;;;;;;;;;;;;;;;15.28;65.74;98981.13;5034906;28;1918;-61
2021/11/02 11:28:19;;;;;;;;;;;;;;;15.23;66.78;98978.91;5034870;28;857;-61
2021/11/02 11:30:46;;;;;;;;;;;;;;;15.23;67.36;98984.50;5035123;28;861;-62
2021/11/02 11:33:18;;;;;;;;;;;;;;;15.11;67.77;98986.91;5035095;28;861;-61
2021/11/02 11:35:45;;;;;;;;;;;;;;;15.01;67.92;98976.16;5017324;28;1271;-61
2021/11/02 11:38:14;;;;;;;;;;;;;;;14.92;68.47;98981.66;5035009;28;854;-61
2021/11/02 11:40:42;;;;;;;;;;;;;;;14.79;68.14;98976.16;5034845;28;807;-61
2021/11/02 11:43:10;;;;;;;;;;;;;;;14.76;68.98;98980.59;5034510;28;874;-62
2021/11/02 11:45:38;;;;;;;;;;;;;;;14.74;69.25;98983.03;5034533;28;1894;-62
2021/11/02 11:48:26;;;;;;;;;;;;;;;14.64;70.07;98987.00;5034905;28;838;-61
2021/11/02 11:50:54;;;;;;;;;;;;;;;14.48;71.05;98983.09;5034533;28;865;-61
2021/11/02 11:53:22;;;;;;;;;;;;;;;14.28;72.29;98977.81;5016710;28;1172;-62
2021/11/02 11:55:59;;;;;;;;;;;;;;;14.13;73.10;98981.53;5034452;28;885;-61
2021/11/02 11:58:26;;;;;;;;;;;;;;;13.96;73.65;98991.97;5034358;28;826;-61
2021/11/02 12:01:14;;;;;;;;;;;;;;;13.87;74.53;98985.09;5034295;28;857;-61
2021/11/02 12:03:41;;;;;;;;;;;;;;;13.85;75.83;98984.75;5034496;28;841;-60
2021/11/02 12:06:07;;;;;;;;;;;;;;;13.82;75.87;98985.63;5034117;28;1997;-60
2021/11/02 12:08:52;;;;;;;;;;;;;;;13.80;76.41;98978.97;5034204;28;893;-60
2021/11/02 12:11:24;;;;;;;;;;;;;;;13.76;76.81;98990.22;5034055;28;897;-60
2021/11/02 12:14:11;;;;;;;;;;;;;;;13.68;77.32;98989.63;5034045;28;835;-60
2021/11/02 12:16:42;;;;;;;;;;;;;;;13.54;78.00;98989.28;5034051;28;865;-61
2021/11/02 12:19:15;;;;;;;;;;;;;;;13.40;78.86;98998.81;5044655;28;1194;-62
2021/11/02 12:21:44;;;;;;;;;;;;;;;13.27;80.30;99001.53;5053852;28;815;-61
2021/11/02 12:24:13;;;;;;;;;;;;;;;13.11;81.45;99001.59;5053662;28;1909;-65
2021/11/02 12:26:45;;;;;;;;;;;;;;;12.94;82.34;99011.97;5053720;28;799;-67
2021/11/02 12:29:17;;;;;;;;;;;;;;;12.74;83.63;99018.44;5053686;28;889;-76
2021/11/02 12:31:44;;;;;;;;;;;;;;;12.54;84.68;99026.84;5035740;28;1154;-72
2021/11/02 12:34:15;;;;;;;;;;;;;;;12.41;85.55;99026.00;5054560;28;783;-71
2021/11/02 12:36:46;;;;;;;;;;;;;;;12.30;85.97;99031.03;5053511;28;873;-70
2021/11/02 12:39:13;;;;;;;;;;;;;;;12.17;85.84;99034.50;5035710;28;1189;-69
2021/11/02 12:41:50;;;;;;;;;;;;;;;12.05;86.53;99030.41;5053435;28;810;-68
2021/11/02 12:44:19;;;;;;;;;;;;;;;11.94;87.08;99029.09;5053291;28;1941;-68
2021/11/02 12:46:47;;;;;;;;;;;;;;;11.87;87.74;99038.31;5053552;28;811;-68
2021/11/02 12:49:16;;;;;;;;;;;;;;;11.83;88.15;99043.94;5035568;28;1185;-67
2021/11/02 12:51:50;;;;;;;;;;;;;;;11.78;89.07;99046.44;5053735;28;837;-69
2021/11/02 12:54:23;;;;;;;;;;;;;;;11.75;89.21;99039.75;5053286;28;830;-77
2021/11/02 12:57:17;;;;;;;;;;;;;;;11.75;89.42;99045.28;5053399;28;886;-78
2021/11/02 12:59:47;;;;;;;;;;;;;;;11.74;89.84;99045.72;5027150;28;1301;-70
2021/11/02 13:02:20;;;;;;;;;;;;;;;11.73;89.48;99033.09;5053134;28;802;-69
2021/11/02 13:05:19;;;;;;;;;;;;;;;11.73;90.06;99027.56;5053128;28;1889;-79
2021/11/02 13:08:10;;;;;;;;;;;;;;;11.70;90.29;99036.72;5035707;28;1044;-78
2021/11/02 13:10:37;;;;;;;;;;;;;;;11.68;90.82;99030.84;5035593;28;1025;-75
2021/11/02 13:13:06;;;;;;;;;;;;;;;11.65;91.02;99022.19;5035476;28;1078;-72
2021/11/02 13:15:47;;;;;;;;;;;;;;;11.65;91.15;99013.09;5035084;28;1131;-71
2021/11/02 13:18:34;;;;;;;;;;;;;;;11.67;91.17;99007.13;5052965;28;1193;-73
2021/11/02 13:21:24;;;;;;;;;;;;;;;11.65;91.55;99002.03;5052683;28;999;-70
2021/11/02 13:23:59;;;;;;;;;;;;;;;11.66;91.70;98992.50;5052581;28;1969;-67
2021/11/02 13:26:26;;;;;;;;;;;;;;;11.71;92.03;98982.91;5052669;28;866;-67
2021/11/02 13:29:07;;;;;;;;;;;;;;;11.77;92.18;98970.88;5050650;28;1343;-67
2021/11/02 13:31:34;;;;;;;;;;;;;;;11.81;91.99;98973.59;5052508;28;862;-67
2021/11/02 13:34:02;;;;;;;;;;;;;;;11.80;92.05;98974.81;5052470;28;819;-67
2021/11/02 13:36:29;;;;;;;;;;;;;;;11.79;92.38;98968.47;5052012;28;870;-67
2021/11/02 13:39:03;;;;;;;;;;;;;;;11.79;92.63;98967.69;5052409;28;869;-67
2021/11/02 13:41:32;;;;;;;;;;;;;;;11.74;92.55;98962.69;5052331;28;866;-67
2021/11/02 13:44:03;;;;;;;;;;;;;;;11.72;92.57;98965.88;5052365;28;1890;-69
2021/11/02 13:46:40;;;;;;;;;;;;;;;11.70;92.62;98970.28;5052229;28;850;-72
2021/11/02 13:49:08;;;;;;;;;;;;;;;11.67;92.48;98976.66;5052375;28;807;-72
2021/11/02 13:51:35;;;;;;;;;;;;;;;11.68;92.98;98989.31;5032835;28;1273;-72
2021/11/02 13:54:03;;;;;;;;;;;;;;;11.67;92.93;98994.09;5052133;28;882;-72
2021/11/02 13:56:31;;;;;;;;;;;;;;;11.68;92.81;98990.09;5052178;28;862;-77
2021/11/02 13:59:18;;;;;;;;;;;;;;;11.68;93.02;98989.31;5010902;28;971;-76
2021/11/02 14:01:57;;;;;;;;;;;;;;;11.64;92.82;98986.63;5034147;28;1339;-74
2021/11/02 14:04:41;;;;;;;;;;;;;;;11.58;93.12;98988.34;5033974;28;1885;-75
2021/11/02 14:07:20;;;;;;;;;;;;;;;11.57;93.33;98990.31;5050647;28;1255;-72
2021/11/02 14:09:52;;;;;;;;;;;;;;;11.57;93.34;98984.78;5051825;28;782;-74
2021/11/02 14:12:22;;;;;;;;;;;;;;;11.57;93.39;98981.25;5051895;28;886;-74
2021/11/02 14:14:49;;;;;;;;;;;;;;;11.57;93.54;98979.25;5051910;28;795;-73
2021/11/02 14:17:17;;;;;;;;;;;;;;;11.60;93.65;98977.63;5051684;28;934;-72
2021/11/02 14:19:45;;;;;;;;;;;;;;;11.62;93.43;98969.66;5051613;28;1258;-74
2021/11/02 14:22:12;;;;;;;;;;;;;;;11.61;93.59;98966.13;5051599;28;847;-72
2021/11/02 14:24:40;;;;;;;;;;;;;;;11.63;93.84;98960.94;5051590;28;1969;-72
2021/11/02 14:27:08;;;;;;;;;;;;;;;11.66;93.56;98962.06;5033697;28;1236;-73
2021/11/02 14:29:50;;;;;;;;;;;;;;;11.68;93.85;98981.78;5051947;28;779;-72
2021/11/02 14:32:35;;;;;;;;;;;;;;;11.67;93.39;98979.44;5051766;28;931;-71
2021/11/02 14:35:02;;;;;;;;;;;;;;;11.61;93.31;98962.59;5033978;28;1165;-72
2021/11/02 14:37:45;;;;;;;;;;;;;;;11.57;93.87;98957.13;5051767;28;842;-72
2021/11/02 14:40:29;;;;;;;;;;;;;;;11.54;93.77;98960.75;5033756;28;1023;-71
2021/11/02 14:42:57;;;;;;;;;;;;;;;11.52;93.58;98952.09;5051454;28;834;-70
2021/11/02 14:45:39;;;;;;;;;;;;;;;11.53;93.73;98950.09;5051629;28;1937;-71
2021/11/02 14:48:23;;;;;;;;;;;;;;;11.52;94.10;98971.47;5057626;28;782;-70
2021/11/02 14:50:49;;;;;;;;;;;;;;;11.48;93.77;98956.94;5058071;28;802;-71
2021/11/02 14:53:16;;;;;;;;;;;;;;;11.47;94.02;98969.19;5058014;28;775;-71
2021/11/02 14:55:55;;;;;;;;;;;;;;;11.44;93.70;98965.31;5058125;28;900;-72
2021/11/02 14:58:40;;;;;;;;;;;;;;;11.42;93.80;98962.19;5040042;28;1197;-71
2021/11/02 15:01:06;;;;;;;;;;;;;;;11.40;93.89;98950.00;5040035;28;1209;-70
2021/11/02 15:03:33;;;;;;;;;;;;;;;11.38;93.76;98953.19;5058176;28;838;-70
2021/11/02 15:06:03;;;;;;;;;;;;;;;11.39;93.77;98956.72;5057807;28;1890;-72
2021/11/02 15:08:30;;;;;;;;;;;;;;;11.41;93.73;98965.38;5057662;28;878;-72
2021/11/02 15:10:58;;;;;;;;;;;;;;;11.41;93.87;98957.06;5057843;28;865;-72
2021/11/02 15:13:25;;;;;;;;;;;;;;;11.40;94.17;98952.75;5058320;28;771;-72
2021/11/02 15:15:54;;;;;;;;;;;;;;;11.39;93.77;98957.53;5039870;28;1260;-72
2021/11/02 15:18:21;;;;;;;;;;;;;;;11.40;93.89;98958.28;5036689;28;1339;-72
2021/11/02 15:20:48;;;;;;;;;;;;;;;11.42;93.95;98961.41;5038121;28;881;-74
2021/11/02 15:23:15;;;;;;;;;;;;;;;11.43;93.93;98960.97;5036617;28;1114;-72
2021/11/02 15:25:42;;;;;;;;;;;;;;;11.44;94.26;98959.00;5037928;28;1973;-75
2021/11/02 15:28:10;;;;;;;;;;;;;;;11.44;93.92;98959.00;5037033;28;1152;-75
2021/11/02 15:30:38;;;;;;;;;;;;;;;11.44;94.42;98964.53;5053404;28;1104;-75
2021/11/02 15:33:08;;;;;;;;;;;;;;;11.43;93.91;98960.97;5053248;28;1046;-76
2021/11/02 15:35:34;;;;;;;;;;;;;;;11.44;94.16;98970.06;5053299;28;1172;-73
2021/11/02 15:38:01;;;;;;;;;;;;;;;11.44;94.04;98970.84;5037649;28;843;-72
2021/11/02 15:40:36;;;;;;;;;;;;;;;11.46;94.53;98975.94;5037650;28;795;-72
2021/11/02 15:43:07;;;;;;;;;;;;;;;11.50;94.41;98968.34;5037689;28;882;-71
2021/11/02 15:45:38;;;;;;;;;;;;;;;11.51;94.09;98969.91;5037544;28;1890;-73
2021/11/02 15:48:18;;;;;;;;;;;;;;;11.52;94.07;98968.72;5037752;28;858;-72
2021/11/02 15:50:45;;;;;;;;;;;;;;;11.52;94.44;98959.59;5053019;28;1247;-72
2021/11/02 15:53:13;;;;;;;;;;;;;;;11.51;94.02;98974.66;5037580;28;811;-72
2021/11/02 15:55:40;;;;;;;;;;;;;;;11.48;94.09;98969.97;5037583;28;858;-72
2021/11/02 15:58:09;;;;;;;;;;;;;;;11.47;94.61;98969.19;5035676;28;803;-73
2021/11/02 16:00:40;;;;;;;;;;;;;;;11.45;94.16;98964.09;5034342;28;866;-71
2021/11/02 16:03:08;;;;;;;;;;;;;;;11.46;94.60;98964.88;5033067;28;1144;-71
2021/11/02 16:05:36;;;;;;;;;;;;;;;11.45;94.76;98963.31;5034444;28;1886;-71
2021/11/02 16:08:18;;;;;;;;;;;;;;;11.44;94.23;98976.38;5034430;28;834;-71
2021/11/02 16:10:46;;;;;;;;;;;;;;;11.41;94.23;98968.94;5034165;28;787;-72
2021/11/02 16:13:12;;;;;;;;;;;;;;;11.38;94.23;98974.53;5034374;28;882;-71
2021/11/02 16:15:40;;;;;;;;;;;;;;;11.35;94.13;98980.91;5034110;28;869;-71
2021/11/02 16:18:15;;;;;;;;;;;;;;;11.33;94.83;98983.34;5035465;28;1182;-72
2021/11/02 16:20:42;;;;;;;;;;;;;;;11.31;94.42;98985.75;5054053;28;849;-71
2021/11/02 16:23:20;;;;;;;;;;;;;;;11.29;94.46;98986.19;5053889;28;858;-71
2021/11/02 16:25:49;;;;;;;;;;;;;;;11.27;94.60;98991.38;5053936;28;1969;-71
2021/11/02 16:28:17;;;;;;;;;;;;;;;11.30;94.69;98996.03;5054045;28;795;-72
2021/11/02 16:30:48;;;;;;;;;;;;;;;11.34;94.75;99004.28;5035806;28;1257;-70
2021/11/02 16:33:16;;;;;;;;;;;;;;;11.35;94.41;99005.81;5054004;28;834;-70
2021/11/02 16:35:47;;;;;;;;;;;;;;;11.35;94.96;99003.84;5035887;28;1208;-70
2021/11/02 16:38:16;;;;;;;;;;;;;;;11.35;94.51;99006.63;5035663;28;1316;-69
2021/11/02 16:40:47;;;;;;;;;;;;;;;11.37;94.71;99009.75;5053560;28;968;-69
2021/11/02 16:43:13;;;;;;;;;;;;;;;11.35;94.66;99019.66;5053448;28;791;-69
2021/11/02 16:45:40;;;;;;;;;;;;;;;11.39;94.56;99015.63;5053435;28;1935;-69
2021/11/02 16:48:08;;;;;;;;;;;;;;;11.40;94.42;99005.34;5052085;28;1290;-69
2021/11/02 16:50:36;;;;;;;;;;;;;;;11.36;94.28;99004.63;5053429;28;852;-69
2021/11/02 16:53:14;;;;;;;;;;;;;;;11.34;94.61;99004.28;5053486;28;799;-68
2021/11/02 16:55:41;;;;;;;;;;;;;;;11.33;94.49;99003.50;5053274;28;782;-68
2021/11/02 16:58:34;;;;;;;;;;;;;;;11.33;94.54;99011.00;5035256;28;1252;-68
2021/11/02 17:01:30;;;;;;;;;;;;;;;11.32;94.35;99014.97;5049878;28;1177;-67
2021/11/02 17:03:58;;;;;;;;;;;;;;;11.31;94.50;99022.50;5036290;28;1259;-67
2021/11/02 17:06:31;;;;;;;;;;;;;;;11.32;94.50;99014.97;5035001;28;1351;-67
2021/11/02 17:09:01;;;;;;;;;;;;;;;11.33;94.48;99016.53;5053085;28;835;-67
2021/11/02 17:11:31;;;;;;;;;;;;;;;11.32;94.25;99013.00;5051795;28;841;-66
2021/11/02 17:13:57;;;;;;;;;;;;;;;11.31;94.32;99011.44;5052894;28;799;-66
2021/11/02 17:16:26;;;;;;;;;;;;;;;11.29;94.21;99013.06;5052882;28;792;-65
2021/11/02 17:18:58;;;;;;;;;;;;;;;11.26;94.48;99023.00;5052727;28;1193;-65
2021/11/02 17:21:28;;;;;;;;;;;;;;;11.22;94.84;99016.75;5052780;28;862;-65
2021/11/02 17:23:55;;;;;;;;;;;;;;;11.21;94.78;99012.44;5052711;28;822;-65
2021/11/02 17:26:22;;;;;;;;;;;;;;;11.23;94.63;99023.84;5052573;28;1902;-65
2021/11/02 17:28:51;;;;;;;;;;;;;;;11.24;94.72;99022.63;5052584;28;822;-65
2021/11/02 17:31:21;;;;;;;;;;;;;;;11.25;94.58;99021.44;5052466;28;838;-64
2021/11/02 17:33:48;;;;;;;;;;;;;;;11.26;95.05;99023.00;5034904;28;1408;-64
2021/11/02 17:36:18;;;;;;;;;;;;;;;11.24;94.94;99026.19;5052704;28;811;-64
2021/11/02 17:38:48;;;;;;;;;;;;;;;11.24;94.81;99040.03;5052434;28;883;-65
2021/11/02 17:41:15;;;;;;;;;;;;;;;11.23;95.16;99024.63;5034468;28;1473;-65
2021/11/02 17:43:42;;;;;;;;;;;;;;;11.25;95.15;99035.28;5052323;28;847;-65
2021/11/02 17:46:10;;;;;;;;;;;;;;;11.26;94.85;99020.22;5052186;28;1886;-65
2021/11/02 17:48:37;;;;;;;;;;;;;;;11.24;94.95;99040.03;5052289;28;779;-65
2021/11/02 17:51:04;;;;;;;;;;;;;;;11.24;94.89;99037.25;5052142;28;814;-65
2021/11/02 17:53:35;;;;;;;;;;;;;;;11.25;95.07;99035.28;5052174;28;799;-65
2021/11/02 17:56:03;;;;;;;;;;;;;;;11.26;94.95;99030.50;5052081;28;850;-65
2021/11/02 17:58:30;;;;;;;;;;;;;;;11.24;94.93;99037.25;5051981;28;880;-65
2021/11/02 18:00:59;;;;;;;;;;;;;;;11.23;95.33;99044.00;5052097;28;803;-65
2021/11/02 18:03:27;;;;;;;;;;;;;;;11.21;94.93;99048.38;5051922;28;874;-65
2021/11/02 18:06:04;;;;;;;;;;;;;;;11.18;94.98;99058.31;5051734;28;1878;-65
2021/11/02 18:08:31;;;;;;;;;;;;;;;11.16;94.93;99055.19;5052053;28;779;-65